sensor_id;sensor_type;location;lat;lon;timestamp;P1;durP1;ratioP1;P2;durP2;ratioP2
59960;SDS011;55902;-37.980;-63.602;2022-10-22T00:01:17;8.93;;;2.58;;
59960;SDS011;55902;-37.980;-63.602;2022-10-22T00:03:44;6.85;;;2.83;;
59960;SDS011;55902;-37.980;-63.602;2022-10-22T00:06:11;7.53;;;3.05;;
59960;SDS011;55902;-37.980;-63.602;2022-10-22T00:08:38;7.68;;;3.17;;
59960;SDS011;55902;-37.980;-63.602;2022-10-22T00:11:12;8.52;;;3.30;;
59960;SDS011;55902;-37.980;-63.602;2022-10-22T00:13:40;7.85;;;3.28;;
59960;SDS011;55902;-37.980;-63.602;2022-10-22T00:16:07;6.22;;;2.72;;
59960;SDS011;55902;-37.980;-63.602;2022-10-22T00:18:34;7.78;;;2.75;;
59960;SDS011;55902;-37.980;-63.602;2022-10-22T00:21:02;8.43;;;2.70;;
59960;SDS011;55902;-37.980;-63.602;2022-10-22T00:23:29;7.95;;;3.20;;
59960;SDS011;55902;-37.980;-63.602;2022-10-22T00:25:56;7.55;;;3.10;;
59960;SDS011;55902;-37.980;-63.602;2022-10-22T00:28:23;6.88;;;3.17;;
59960;SDS011;55902;-37.980;-63.602;2022-10-22T00:30:57;6.57;;;2.90;;
59960;SDS011;55902;-37.980;-63.602;2022-10-22T00:33:26;7.75;;;2.80;;
59960;SDS011;55902;-37.980;-63.602;2022-10-22T00:35:54;5.78;;;2.70;;
59960;SDS011;55902;-37.980;-63.602;2022-10-22T00:38:21;6.03;;;2.92;;
59960;SDS011;55902;-37.980;-63.602;2022-10-22T00:40:48;4.65;;;2.60;;
59960;SDS011;55902;-37.980;-63.602;2022-10-22T00:43:16;5.93;;;2.60;;
59960;SDS011;55902;-37.980;-63.602;2022-10-22T00:45:44;7.05;;;2.70;;
59960;SDS011;55902;-37.980;-63.602;2022-10-22T00:48:19;5.38;;;2.60;;
59960;SDS011;55902;-37.980;-63.602;2022-10-22T00:50:53;4.93;;;2.97;;
59960;SDS011;55902;-37.980;-63.602;2022-10-22T00:53:34;7.30;;;2.97;;
59960;SDS011;55902;-37.980;-63.602;2022-10-22T00:56:02;5.65;;;2.60;;
59960;SDS011;55902;-37.980;-63.602;2022-10-22T00:58:30;6.90;;;3.22;;
59960;SDS011;55902;-37.980;-63.602;2022-10-22T01:01:01;6.15;;;3.00;;
59960;SDS011;55902;-37.980;-63.602;2022-10-22T01:03:30;4.45;;;2.78;;
59960;SDS011;55902;-37.980;-63.602;2022-10-22T01:05:58;5.60;;;2.85;;
59960;SDS011;55902;-37.980;-63.602;2022-10-22T01:13:47;5.93;;;2.92;;
59960;SDS011;55902;-37.980;-63.602;2022-10-22T01:22:18;6.38;;;3.00;;
59960;SDS011;55902;-37.980;-63.602;2022-10-22T01:27:56;6.63;;;2.50;;
59960;SDS011;55902;-37.980;-63.602;2022-10-22T01:30:45;2.97;;;2.20;;
59960;SDS011;55902;-37.980;-63.602;2022-10-22T01:43:20;6.55;;;2.72;;
59960;SDS011;55902;-37.980;-63.602;2022-10-22T01:45:48;6.80;;;2.83;;
59960;SDS011;55902;-37.980;-63.602;2022-10-22T02:02:40;6.60;;;3.30;;
59960;SDS011;55902;-37.980;-63.602;2022-10-22T02:05:44;7.03;;;2.70;;
59960;SDS011;55902;-37.980;-63.602;2022-10-22T02:08:15;4.93;;;2.97;;
59960;SDS011;55902;-37.980;-63.602;2022-10-22T02:10:46;6.47;;;2.85;;
59960;SDS011;55902;-37.980;-63.602;2022-10-22T02:13:18;8.40;;;3.97;;
59960;SDS011;55902;-37.980;-63.602;2022-10-22T02:15:55;8.40;;;4.10;;
59960;SDS011;55902;-37.980;-63.602;2022-10-22T02:18:24;8.73;;;3.67;;
59960;SDS011;55902;-37.980;-63.602;2022-10-22T02:20:55;7.82;;;3.10;;
59960;SDS011;55902;-37.980;-63.602;2022-10-22T02:23:23;8.90;;;3.28;;
59960;SDS011;55902;-37.980;-63.602;2022-10-22T02:25:54;5.25;;;2.70;;
59960;SDS011;55902;-37.980;-63.602;2022-10-22T02:31:24;6.13;;;2.47;;
59960;SDS011;55902;-37.980;-63.602;2022-10-22T02:33:55;5.13;;;2.35;;
59960;SDS011;55902;-37.980;-63.602;2022-10-22T02:36:26;6.32;;;2.50;;
59960;SDS011;55902;-37.980;-63.602;2022-10-22T02:38:54;6.43;;;3.03;;
59960;SDS011;55902;-37.980;-63.602;2022-10-22T02:41:21;4.75;;;2.30;;
59960;SDS011;55902;-37.980;-63.602;2022-10-22T02:43:50;4.32;;;2.20;;
59960;SDS011;55902;-37.980;-63.602;2022-10-22T02:46:19;5.93;;;2.50;;
59960;SDS011;55902;-37.980;-63.602;2022-10-22T02:48:46;4.15;;;2.60;;
59960;SDS011;55902;-37.980;-63.602;2022-10-22T02:51:13;6.15;;;2.38;;
59960;SDS011;55902;-37.980;-63.602;2022-10-22T02:53:40;6.40;;;2.70;;
59960;SDS011;55902;-37.980;-63.602;2022-10-22T02:56:07;5.65;;;3.00;;
59960;SDS011;55902;-37.980;-63.602;2022-10-22T02:58:34;8.23;;;3.00;;
59960;SDS011;55902;-37.980;-63.602;2022-10-22T03:01:01;5.38;;;3.25;;
59960;SDS011;55902;-37.980;-63.602;2022-10-22T03:03:28;7.60;;;2.80;;
59960;SDS011;55902;-37.980;-63.602;2022-10-22T03:05:55;5.63;;;2.75;;
59960;SDS011;55902;-37.980;-63.602;2022-10-22T03:08:22;4.43;;;2.60;;
59960;SDS011;55902;-37.980;-63.602;2022-10-22T03:10:51;6.38;;;3.08;;
59960;SDS011;55902;-37.980;-63.602;2022-10-22T03:13:18;6.45;;;3.30;;
59960;SDS011;55902;-37.980;-63.602;2022-10-22T03:15:48;3.60;;;2.72;;
59960;SDS011;55902;-37.980;-63.602;2022-10-22T03:18:16;6.00;;;3.60;;
59960;SDS011;55902;-37.980;-63.602;2022-10-22T03:20:43;7.07;;;2.90;;
59960;SDS011;55902;-37.980;-63.602;2022-10-22T03:23:11;5.15;;;2.97;;
59960;SDS011;55902;-37.980;-63.602;2022-10-22T03:25:42;6.80;;;3.40;;
59960;SDS011;55902;-37.980;-63.602;2022-10-22T03:28:12;6.57;;;3.08;;
59960;SDS011;55902;-37.980;-63.602;2022-10-22T03:30:42;6.20;;;3.05;;
59960;SDS011;55902;-37.980;-63.602;2022-10-22T03:33:09;3.72;;;2.75;;
59960;SDS011;55902;-37.980;-63.602;2022-10-22T03:35:38;7.20;;;2.90;;
59960;SDS011;55902;-37.980;-63.602;2022-10-22T03:38:09;5.93;;;2.60;;
59960;SDS011;55902;-37.980;-63.602;2022-10-22T03:40:36;3.38;;;2.50;;
59960;SDS011;55902;-37.980;-63.602;2022-10-22T03:43:04;7.57;;;2.70;;
59960;SDS011;55902;-37.980;-63.602;2022-10-22T03:45:30;4.72;;;2.85;;
59960;SDS011;55902;-37.980;-63.602;2022-10-22T03:47:57;6.00;;;3.10;;
59960;SDS011;55902;-37.980;-63.602;2022-10-22T03:50:24;8.23;;;3.65;;
59960;SDS011;55902;-37.980;-63.602;2022-10-22T03:52:51;5.88;;;3.20;;
59960;SDS011;55902;-37.980;-63.602;2022-10-22T03:55:18;7.00;;;3.00;;
59960;SDS011;55902;-37.980;-63.602;2022-10-22T03:57:45;5.30;;;2.90;;
59960;SDS011;55902;-37.980;-63.602;2022-10-22T04:00:12;6.28;;;2.90;;
59960;SDS011;55902;-37.980;-63.602;2022-10-22T04:02:39;6.10;;;3.20;;
59960;SDS011;55902;-37.980;-63.602;2022-10-22T04:05:06;6.30;;;2.83;;
59960;SDS011;55902;-37.980;-63.602;2022-10-22T04:07:33;7.78;;;3.00;;
59960;SDS011;55902;-37.980;-63.602;2022-10-22T04:10:00;5.57;;;2.63;;
59960;SDS011;55902;-37.980;-63.602;2022-10-22T04:12:28;6.38;;;2.90;;
59960;SDS011;55902;-37.980;-63.602;2022-10-22T04:14:55;4.28;;;2.92;;
59960;SDS011;55902;-37.980;-63.602;2022-10-22T04:17:22;4.10;;;3.00;;
59960;SDS011;55902;-37.980;-63.602;2022-10-22T04:19:48;7.55;;;2.80;;
59960;SDS011;55902;-37.980;-63.602;2022-10-22T04:22:15;5.30;;;2.60;;
59960;SDS011;55902;-37.980;-63.602;2022-10-22T04:24:42;4.63;;;2.80;;
59960;SDS011;55902;-37.980;-63.602;2022-10-22T04:27:09;5.72;;;2.70;;
59960;SDS011;55902;-37.980;-63.602;2022-10-22T04:29:36;3.72;;;2.55;;
59960;SDS011;55902;-37.980;-63.602;2022-10-22T04:32:03;4.15;;;2.53;;
59960;SDS011;55902;-37.980;-63.602;2022-10-22T04:34:30;4.20;;;2.50;;
59960;SDS011;55902;-37.980;-63.602;2022-10-22T04:36:57;4.03;;;2.97;;
59960;SDS011;55902;-37.980;-63.602;2022-10-22T04:39:24;9.38;;;3.45;;
59960;SDS011;55902;-37.980;-63.602;2022-10-22T04:41:51;7.38;;;3.00;;
59960;SDS011;55902;-37.980;-63.602;2022-10-22T04:44:18;6.18;;;3.05;;
59960;SDS011;55902;-37.980;-63.602;2022-10-22T04:46:45;4.97;;;3.38;;
59960;SDS011;55902;-37.980;-63.602;2022-10-22T04:49:12;5.15;;;2.67;;
59960;SDS011;55902;-37.980;-63.602;2022-10-22T04:51:39;5.63;;;2.75;;
59960;SDS011;55902;-37.980;-63.602;2022-10-22T04:54:09;6.00;;;2.70;;
59960;SDS011;55902;-37.980;-63.602;2022-10-22T04:56:36;6.13;;;2.80;;
59960;SDS011;55902;-37.980;-63.602;2022-10-22T04:59:04;4.78;;;2.85;;
59960;SDS011;55902;-37.980;-63.602;2022-10-22T05:01:33;7.15;;;3.30;;
59960;SDS011;55902;-37.980;-63.602;2022-10-22T05:04:05;8.00;;;3.10;;
59960;SDS011;55902;-37.980;-63.602;2022-10-22T05:06:37;8.05;;;2.95;;
59960;SDS011;55902;-37.980;-63.602;2022-10-22T05:09:05;4.70;;;2.88;;
59960;SDS011;55902;-37.980;-63.602;2022-10-22T05:11:36;6.65;;;3.50;;
59960;SDS011;55902;-37.980;-63.602;2022-10-22T05:14:06;7.35;;;3.30;;
59960;SDS011;55902;-37.980;-63.602;2022-10-22T05:16:34;5.20;;;3.17;;
59960;SDS011;55902;-37.980;-63.602;2022-10-22T05:19:02;5.18;;;3.28;;
59960;SDS011;55902;-37.980;-63.602;2022-10-22T05:21:30;7.53;;;3.80;;
59960;SDS011;55902;-37.980;-63.602;2022-10-22T05:23:57;8.65;;;5.90;;
59960;SDS011;55902;-37.980;-63.602;2022-10-22T05:26:24;15.60;;;10.13;;
59960;SDS011;55902;-37.980;-63.602;2022-10-22T05:28:52;18.67;;;12.57;;
59960;SDS011;55902;-37.980;-63.602;2022-10-22T05:31:19;16.55;;;11.30;;
59960;SDS011;55902;-37.980;-63.602;2022-10-22T05:33:46;16.02;;;10.77;;
59960;SDS011;55902;-37.980;-63.602;2022-10-22T05:36:14;15.73;;;9.73;;
59960;SDS011;55902;-37.980;-63.602;2022-10-22T05:38:44;15.65;;;9.90;;
59960;SDS011;55902;-37.980;-63.602;2022-10-22T05:41:12;12.82;;;7.28;;
59960;SDS011;55902;-37.980;-63.602;2022-10-22T05:43:41;15.63;;;9.55;;
59960;SDS011;55902;-37.980;-63.602;2022-10-22T05:46:12;12.90;;;6.57;;
59960;SDS011;55902;-37.980;-63.602;2022-10-22T05:48:43;11.30;;;5.70;;
59960;SDS011;55902;-37.980;-63.602;2022-10-22T05:51:17;10.73;;;4.50;;
59960;SDS011;55902;-37.980;-63.602;2022-10-22T05:53:45;8.90;;;3.90;;
59960;SDS011;55902;-37.980;-63.602;2022-10-22T05:56:15;9.93;;;3.50;;
59960;SDS011;55902;-37.980;-63.602;2022-10-22T05:58:43;8.38;;;3.50;;
59960;SDS011;55902;-37.980;-63.602;2022-10-22T06:01:16;7.20;;;3.63;;
59960;SDS011;55902;-37.980;-63.602;2022-10-22T06:03:48;7.68;;;3.58;;
59960;SDS011;55902;-37.980;-63.602;2022-10-22T06:06:24;9.95;;;3.50;;
59960;SDS011;55902;-37.980;-63.602;2022-10-22T06:09:00;8.43;;;3.13;;
59960;SDS011;55902;-37.980;-63.602;2022-10-22T06:11:47;7.57;;;3.38;;
59960;SDS011;55902;-37.980;-63.602;2022-10-22T06:14:15;4.70;;;2.63;;
59960;SDS011;55902;-37.980;-63.602;2022-10-22T06:26:51;5.88;;;2.65;;
59960;SDS011;55902;-37.980;-63.602;2022-10-22T06:29:18;5.22;;;2.60;;
59960;SDS011;55902;-37.980;-63.602;2022-10-22T06:31:46;6.40;;;2.70;;
59960;SDS011;55902;-37.980;-63.602;2022-10-22T06:34:13;5.22;;;2.60;;
59960;SDS011;55902;-37.980;-63.602;2022-10-22T06:36:43;7.93;;;2.80;;
59960;SDS011;55902;-37.980;-63.602;2022-10-22T06:39:12;7.10;;;2.60;;
59960;SDS011;55902;-37.980;-63.602;2022-10-22T06:41:40;7.35;;;2.50;;
59960;SDS011;55902;-37.980;-63.602;2022-10-22T06:44:10;6.00;;;2.53;;
59960;SDS011;55902;-37.980;-63.602;2022-10-22T06:46:40;5.25;;;2.58;;
59960;SDS011;55902;-37.980;-63.602;2022-10-22T06:49:10;7.80;;;2.72;;
59960;SDS011;55902;-37.980;-63.602;2022-10-22T06:51:41;8.32;;;2.70;;
59960;SDS011;55902;-37.980;-63.602;2022-10-22T06:54:08;7.50;;;2.55;;
59960;SDS011;55902;-37.980;-63.602;2022-10-22T06:56:36;6.07;;;2.67;;
59960;SDS011;55902;-37.980;-63.602;2022-10-22T06:59:03;4.50;;;2.53;;
59960;SDS011;55902;-37.980;-63.602;2022-10-22T07:01:30;4.75;;;2.50;;
59960;SDS011;55902;-37.980;-63.602;2022-10-22T07:03:59;5.50;;;2.20;;
59960;SDS011;55902;-37.980;-63.602;2022-10-22T07:06:26;7.45;;;2.60;;
59960;SDS011;55902;-37.980;-63.602;2022-10-22T07:08:55;4.70;;;2.80;;
59960;SDS011;55902;-37.980;-63.602;2022-10-22T07:11:24;7.18;;;2.40;;
59960;SDS011;55902;-37.980;-63.602;2022-10-22T07:13:55;6.22;;;2.63;;
59960;SDS011;55902;-37.980;-63.602;2022-10-22T07:16:23;4.82;;;2.50;;
59960;SDS011;55902;-37.980;-63.602;2022-10-22T07:18:50;5.85;;;2.67;;
59960;SDS011;55902;-37.980;-63.602;2022-10-22T07:21:18;6.95;;;2.40;;
59960;SDS011;55902;-37.980;-63.602;2022-10-22T07:23:46;8.60;;;2.50;;
59960;SDS011;55902;-37.980;-63.602;2022-10-22T07:26:15;5.63;;;2.38;;
59960;SDS011;55902;-37.980;-63.602;2022-10-22T07:28:45;8.05;;;2.80;;
59960;SDS011;55902;-37.980;-63.602;2022-10-22T07:31:13;5.65;;;2.90;;
59960;SDS011;55902;-37.980;-63.602;2022-10-22T07:33:40;4.65;;;2.50;;
59960;SDS011;55902;-37.980;-63.602;2022-10-22T07:46:35;7.63;;;2.90;;
59960;SDS011;55902;-37.980;-63.602;2022-10-22T07:49:27;8.57;;;2.72;;
59960;SDS011;55902;-37.980;-63.602;2022-10-22T07:51:54;7.07;;;2.85;;
59960;SDS011;55902;-37.980;-63.602;2022-10-22T07:54:21;4.95;;;2.70;;
59960;SDS011;55902;-37.980;-63.602;2022-10-22T07:56:49;7.20;;;2.70;;
59960;SDS011;55902;-37.980;-63.602;2022-10-22T07:59:16;5.25;;;2.80;;
59960;SDS011;55902;-37.980;-63.602;2022-10-22T08:01:43;7.60;;;2.70;;
59960;SDS011;55902;-37.980;-63.602;2022-10-22T08:04:11;4.43;;;2.60;;
59960;SDS011;55902;-37.980;-63.602;2022-10-22T08:06:38;7.40;;;2.80;;
59960;SDS011;55902;-37.980;-63.602;2022-10-22T08:09:05;5.97;;;2.63;;
59960;SDS011;55902;-37.980;-63.602;2022-10-22T08:11:32;6.43;;;2.78;;
59960;SDS011;55902;-37.980;-63.602;2022-10-22T08:13:59;7.20;;;2.97;;
59960;SDS011;55902;-37.980;-63.602;2022-10-22T08:16:29;6.43;;;3.00;;
59960;SDS011;55902;-37.980;-63.602;2022-10-22T08:18:56;3.33;;;2.50;;
59960;SDS011;55902;-37.980;-63.602;2022-10-22T08:21:23;6.45;;;2.55;;
59960;SDS011;55902;-37.980;-63.602;2022-10-22T08:23:50;7.22;;;2.70;;
59960;SDS011;55902;-37.980;-63.602;2022-10-22T08:26:17;4.85;;;2.40;;
59960;SDS011;55902;-37.980;-63.602;2022-10-22T08:28:44;6.00;;;2.78;;
59960;SDS011;55902;-37.980;-63.602;2022-10-22T08:31:11;4.28;;;2.30;;
59960;SDS011;55902;-37.980;-63.602;2022-10-22T08:33:38;4.68;;;2.72;;
59960;SDS011;55902;-37.980;-63.602;2022-10-22T08:36:06;5.50;;;2.63;;
59960;SDS011;55902;-37.980;-63.602;2022-10-22T08:38:33;3.75;;;2.50;;
59960;SDS011;55902;-37.980;-63.602;2022-10-22T08:46:30;4.13;;;2.50;;
59960;SDS011;55902;-37.980;-63.602;2022-10-22T08:49:27;6.47;;;2.47;;
59960;SDS011;55902;-37.980;-63.602;2022-10-22T08:51:59;2.83;;;2.25;;
59960;SDS011;55902;-37.980;-63.602;2022-10-22T08:54:35;2.47;;;2.20;;
59960;SDS011;55902;-37.980;-63.602;2022-10-22T08:57:29;4.38;;;2.28;;
59960;SDS011;55902;-37.980;-63.602;2022-10-22T09:03:23;3.22;;;2.35;;
59960;SDS011;55902;-37.980;-63.602;2022-10-22T09:06:10;3.55;;;2.30;;
59960;SDS011;55902;-37.980;-63.602;2022-10-22T09:08:58;6.82;;;2.95;;
59960;SDS011;55902;-37.980;-63.602;2022-10-22T09:11:27;7.07;;;2.42;;
59960;SDS011;55902;-37.980;-63.602;2022-10-22T09:13:59;5.13;;;2.30;;
59960;SDS011;55902;-37.980;-63.602;2022-10-22T09:25:26;2.70;;;2.20;;
59960;SDS011;55902;-37.980;-63.602;2022-10-22T09:27:55;3.47;;;2.40;;
59960;SDS011;55902;-37.980;-63.602;2022-10-22T09:30:24;4.28;;;2.45;;
59960;SDS011;55902;-37.980;-63.602;2022-10-22T09:32:57;5.10;;;2.40;;
59960;SDS011;55902;-37.980;-63.602;2022-10-22T09:35:28;4.20;;;2.30;;
59960;SDS011;55902;-37.980;-63.602;2022-10-22T09:38:05;3.80;;;2.30;;
59960;SDS011;55902;-37.980;-63.602;2022-10-22T09:40:43;4.88;;;2.33;;
59960;SDS011;55902;-37.980;-63.602;2022-10-22T09:43:16;4.63;;;2.40;;
59960;SDS011;55902;-37.980;-63.602;2022-10-22T09:45:44;3.63;;;2.53;;
59960;SDS011;55902;-37.980;-63.602;2022-10-22T09:50:43;3.35;;;2.35;;
59960;SDS011;55902;-37.980;-63.602;2022-10-22T09:53:19;5.57;;;2.47;;
59960;SDS011;55902;-37.980;-63.602;2022-10-22T09:55:52;5.05;;;2.50;;
59960;SDS011;55902;-37.980;-63.602;2022-10-22T09:58:22;5.68;;;2.40;;
59960;SDS011;55902;-37.980;-63.602;2022-10-22T10:00:54;4.60;;;2.30;;
59960;SDS011;55902;-37.980;-63.602;2022-10-22T10:03:31;7.90;;;2.45;;
59960;SDS011;55902;-37.980;-63.602;2022-10-22T10:05:58;4.65;;;2.60;;
59960;SDS011;55902;-37.980;-63.602;2022-10-22T10:08:27;5.07;;;2.47;;
59960;SDS011;55902;-37.980;-63.602;2022-10-22T10:16:05;5.82;;;2.42;;
59960;SDS011;55902;-37.980;-63.602;2022-10-22T10:21:09;4.05;;;2.28;;
59960;SDS011;55902;-37.980;-63.602;2022-10-22T10:23:52;6.30;;;2.55;;
59960;SDS011;55902;-37.980;-63.602;2022-10-22T10:26:25;6.18;;;2.60;;
59960;SDS011;55902;-37.980;-63.602;2022-10-22T10:32:21;5.88;;;2.88;;
59960;SDS011;55902;-37.980;-63.602;2022-10-22T10:43:13;12.18;;;3.30;;
59960;SDS011;55902;-37.980;-63.602;2022-10-22T10:55:27;5.93;;;2.70;;
59960;SDS011;55902;-37.980;-63.602;2022-10-22T11:01:20;8.57;;;2.90;;
59960;SDS011;55902;-37.980;-63.602;2022-10-22T11:06:27;8.52;;;2.80;;
59960;SDS011;55902;-37.980;-63.602;2022-10-22T11:09:06;6.55;;;2.80;;
59960;SDS011;55902;-37.980;-63.602;2022-10-22T11:11:49;6.65;;;2.70;;
59960;SDS011;55902;-37.980;-63.602;2022-10-22T11:14:41;4.93;;;2.70;;
59960;SDS011;55902;-37.980;-63.602;2022-10-22T11:17:24;7.70;;;3.30;;
59960;SDS011;55902;-37.980;-63.602;2022-10-22T11:20:01;6.82;;;2.90;;
59960;SDS011;55902;-37.980;-63.602;2022-10-22T11:22:46;13.55;;;3.75;;
59960;SDS011;55902;-37.980;-63.602;2022-10-22T11:25:21;6.28;;;3.70;;
59960;SDS011;55902;-37.980;-63.602;2022-10-22T11:27:58;20.33;;;7.97;;
59960;SDS011;55902;-37.980;-63.602;2022-10-22T11:30:38;14.63;;;6.40;;
59960;SDS011;55902;-37.980;-63.602;2022-10-22T11:33:10;10.07;;;3.83;;
59960;SDS011;55902;-37.980;-63.602;2022-10-22T11:35:41;7.82;;;3.55;;
59960;SDS011;55902;-37.980;-63.602;2022-10-22T11:38:12;7.78;;;2.78;;
59960;SDS011;55902;-37.980;-63.602;2022-10-22T11:40:53;7.78;;;2.53;;
59960;SDS011;55902;-37.980;-63.602;2022-10-22T11:43:32;7.00;;;2.65;;
59960;SDS011;55902;-37.980;-63.602;2022-10-22T11:48:43;10.48;;;2.95;;
59960;SDS011;55902;-37.980;-63.602;2022-10-22T11:51:35;8.73;;;2.33;;
59960;SDS011;55902;-37.980;-63.602;2022-10-22T11:57:46;7.20;;;2.72;;
59960;SDS011;55902;-37.980;-63.602;2022-10-22T12:15:26;8.23;;;1.80;;
59960;SDS011;55902;-37.980;-63.602;2022-10-22T12:18:00;6.15;;;1.92;;
59960;SDS011;55902;-37.980;-63.602;2022-10-22T12:20:30;6.57;;;2.05;;
59960;SDS011;55902;-37.980;-63.602;2022-10-22T12:22:57;6.70;;;1.88;;
59960;SDS011;55902;-37.980;-63.602;2022-10-22T12:25:28;7.43;;;2.05;;
59960;SDS011;55902;-37.980;-63.602;2022-10-22T12:27:57;9.57;;;2.08;;
59960;SDS011;55902;-37.980;-63.602;2022-10-22T12:30:29;6.07;;;1.90;;
59960;SDS011;55902;-37.980;-63.602;2022-10-22T12:33:00;6.32;;;1.70;;
59960;SDS011;55902;-37.980;-63.602;2022-10-22T12:35:30;4.57;;;1.80;;
59960;SDS011;55902;-37.980;-63.602;2022-10-22T12:38:18;6.10;;;1.90;;
59960;SDS011;55902;-37.980;-63.602;2022-10-22T12:40:47;8.50;;;2.00;;
59960;SDS011;55902;-37.980;-63.602;2022-10-22T12:43:16;3.33;;;1.60;;
59960;SDS011;55902;-37.980;-63.602;2022-10-22T12:45:48;4.95;;;1.80;;
59960;SDS011;55902;-37.980;-63.602;2022-10-22T12:48:23;4.65;;;1.70;;
59960;SDS011;55902;-37.980;-63.602;2022-10-22T12:50:57;6.03;;;1.80;;
59960;SDS011;55902;-37.980;-63.602;2022-10-22T12:56:05;3.83;;;1.60;;
59960;SDS011;55902;-37.980;-63.602;2022-10-22T13:01:09;4.93;;;1.70;;
59960;SDS011;55902;-37.980;-63.602;2022-10-22T13:03:45;4.97;;;1.65;;
59960;SDS011;55902;-37.980;-63.602;2022-10-22T13:09:36;5.05;;;1.73;;
59960;SDS011;55902;-37.980;-63.602;2022-10-22T13:12:07;7.15;;;1.90;;
59960;SDS011;55902;-37.980;-63.602;2022-10-22T13:21:59;6.50;;;1.70;;
59960;SDS011;55902;-37.980;-63.602;2022-10-22T13:24:26;4.57;;;1.48;;
59960;SDS011;55902;-37.980;-63.602;2022-10-22T13:26:54;6.03;;;1.80;;
59960;SDS011;55902;-37.980;-63.602;2022-10-22T13:29:22;7.57;;;1.90;;
59960;SDS011;55902;-37.980;-63.602;2022-10-22T13:31:50;7.75;;;1.80;;
59960;SDS011;55902;-37.980;-63.602;2022-10-22T13:34:19;4.05;;;1.70;;
59960;SDS011;55902;-37.980;-63.602;2022-10-22T13:36:47;6.55;;;1.70;;
59960;SDS011;55902;-37.980;-63.602;2022-10-22T13:39:18;3.47;;;1.30;;
59960;SDS011;55902;-37.980;-63.602;2022-10-22T13:51:51;6.65;;;1.55;;
59960;SDS011;55902;-37.980;-63.602;2022-10-22T13:54:19;6.18;;;1.40;;
59960;SDS011;55902;-37.980;-63.602;2022-10-22T13:56:48;5.47;;;1.27;;
59960;SDS011;55902;-37.980;-63.602;2022-10-22T13:59:15;9.20;;;1.83;;
59960;SDS011;55902;-37.980;-63.602;2022-10-22T14:01:42;5.60;;;1.50;;
59960;SDS011;55902;-37.980;-63.602;2022-10-22T14:04:10;5.50;;;1.52;;
59960;SDS011;55902;-37.980;-63.602;2022-10-22T14:06:39;6.25;;;1.58;;
59960;SDS011;55902;-37.980;-63.602;2022-10-22T14:09:09;4.78;;;1.25;;
59960;SDS011;55902;-37.980;-63.602;2022-10-22T14:11:38;4.78;;;1.45;;
59960;SDS011;55902;-37.980;-63.602;2022-10-22T14:14:05;3.97;;;1.38;;
59960;SDS011;55902;-37.980;-63.602;2022-10-22T14:16:33;3.45;;;1.23;;
59960;SDS011;55902;-37.980;-63.602;2022-10-22T14:19:02;3.70;;;1.10;;
59960;SDS011;55902;-37.980;-63.602;2022-10-22T14:21:34;4.70;;;1.30;;
59960;SDS011;55902;-37.980;-63.602;2022-10-22T14:24:02;4.93;;;1.50;;
59960;SDS011;55902;-37.980;-63.602;2022-10-22T14:26:30;3.53;;;1.10;;
59960;SDS011;55902;-37.980;-63.602;2022-10-22T14:28:59;3.20;;;1.20;;
59960;SDS011;55902;-37.980;-63.602;2022-10-22T14:31:27;4.30;;;1.20;;
59960;SDS011;55902;-37.980;-63.602;2022-10-22T14:33:54;5.45;;;1.40;;
59960;SDS011;55902;-37.980;-63.602;2022-10-22T14:36:21;4.40;;;1.10;;
59960;SDS011;55902;-37.980;-63.602;2022-10-22T14:38:48;4.68;;;1.27;;
59960;SDS011;55902;-37.980;-63.602;2022-10-22T14:41:17;3.90;;;1.08;;
59960;SDS011;55902;-37.980;-63.602;2022-10-22T14:43:49;7.57;;;1.43;;
59960;SDS011;55902;-37.980;-63.602;2022-10-22T14:46:17;4.15;;;1.10;;
59960;SDS011;55902;-37.980;-63.602;2022-10-22T14:48:44;5.05;;;1.20;;
59960;SDS011;55902;-37.980;-63.602;2022-10-22T14:51:12;3.20;;;1.33;;
59960;SDS011;55902;-37.980;-63.602;2022-10-22T14:53:42;4.55;;;1.25;;
59960;SDS011;55902;-37.980;-63.602;2022-10-22T14:56:13;2.80;;;1.10;;
59960;SDS011;55902;-37.980;-63.602;2022-10-22T14:58:41;4.78;;;1.27;;
59960;SDS011;55902;-37.980;-63.602;2022-10-22T15:01:08;3.03;;;1.02;;
59960;SDS011;55902;-37.980;-63.602;2022-10-22T15:03:35;4.07;;;1.40;;
59960;SDS011;55902;-37.980;-63.602;2022-10-22T15:06:02;4.60;;;1.23;;
59960;SDS011;55902;-37.980;-63.602;2022-10-22T15:08:29;3.95;;;1.15;;
59960;SDS011;55902;-37.980;-63.602;2022-10-22T15:11:00;6.07;;;1.48;;
59960;SDS011;55902;-37.980;-63.602;2022-10-22T15:13:32;3.55;;;1.30;;
59960;SDS011;55902;-37.980;-63.602;2022-10-22T15:15:59;3.80;;;1.40;;
59960;SDS011;55902;-37.980;-63.602;2022-10-22T15:18:27;3.63;;;1.23;;
59960;SDS011;55902;-37.980;-63.602;2022-10-22T15:23:45;6.68;;;1.30;;
59960;SDS011;55902;-37.980;-63.602;2022-10-22T15:26:12;4.35;;;1.30;;
59960;SDS011;55902;-37.980;-63.602;2022-10-22T15:28:40;3.50;;;1.20;;
59960;SDS011;55902;-37.980;-63.602;2022-10-22T15:31:09;5.18;;;1.10;;
59960;SDS011;55902;-37.980;-63.602;2022-10-22T15:33:39;6.75;;;1.33;;
59960;SDS011;55902;-37.980;-63.602;2022-10-22T15:36:10;3.33;;;1.20;;
59960;SDS011;55902;-37.980;-63.602;2022-10-22T15:38:41;4.18;;;1.45;;
59960;SDS011;55902;-37.980;-63.602;2022-10-22T15:41:10;3.72;;;1.10;;
59960;SDS011;55902;-37.980;-63.602;2022-10-22T15:43:41;4.45;;;1.30;;
59960;SDS011;55902;-37.980;-63.602;2022-10-22T15:46:09;4.50;;;1.10;;
59960;SDS011;55902;-37.980;-63.602;2022-10-22T15:48:38;3.83;;;1.08;;
59960;SDS011;55902;-37.980;-63.602;2022-10-22T15:51:07;5.68;;;1.30;;
59960;SDS011;55902;-37.980;-63.602;2022-10-22T15:53:38;4.03;;;1.13;;
59960;SDS011;55902;-37.980;-63.602;2022-10-22T15:56:06;3.03;;;1.13;;
59960;SDS011;55902;-37.980;-63.602;2022-10-22T15:58:34;4.28;;;1.30;;
59960;SDS011;55902;-37.980;-63.602;2022-10-22T16:01:04;5.68;;;1.20;;
59960;SDS011;55902;-37.980;-63.602;2022-10-22T16:03:32;3.28;;;1.13;;
59960;SDS011;55902;-37.980;-63.602;2022-10-22T16:05:59;5.05;;;1.30;;
59960;SDS011;55902;-37.980;-63.602;2022-10-22T16:08:26;4.47;;;1.02;;
59960;SDS011;55902;-37.980;-63.602;2022-10-22T16:10:53;2.88;;;0.90;;
59960;SDS011;55902;-37.980;-63.602;2022-10-22T16:13:21;4.45;;;1.10;;
59960;SDS011;55902;-37.980;-63.602;2022-10-22T16:15:49;3.85;;;1.20;;
59960;SDS011;55902;-37.980;-63.602;2022-10-22T16:18:17;3.55;;;1.13;;
59960;SDS011;55902;-37.980;-63.602;2022-10-22T16:20:44;3.70;;;1.10;;
59960;SDS011;55902;-37.980;-63.602;2022-10-22T16:23:12;3.08;;;0.90;;
59960;SDS011;55902;-37.980;-63.602;2022-10-22T16:25:43;4.18;;;1.10;;
59960;SDS011;55902;-37.980;-63.602;2022-10-22T16:28:11;3.90;;;0.90;;
59960;SDS011;55902;-37.980;-63.602;2022-10-22T16:30:38;4.32;;;1.20;;
59960;SDS011;55902;-37.980;-63.602;2022-10-22T16:33:06;3.03;;;0.95;;
59960;SDS011;55902;-37.980;-63.602;2022-10-22T16:35:38;2.78;;;1.20;;
59960;SDS011;55902;-37.980;-63.602;2022-10-22T16:38:08;3.03;;;0.90;;
59960;SDS011;55902;-37.980;-63.602;2022-10-22T16:40:36;2.88;;;0.93;;
59960;SDS011;55902;-37.980;-63.602;2022-10-22T16:43:04;3.17;;;0.90;;
59960;SDS011;55902;-37.980;-63.602;2022-10-22T16:45:31;3.13;;;1.00;;
59960;SDS011;55902;-37.980;-63.602;2022-10-22T16:47:58;4.00;;;0.85;;
59960;SDS011;55902;-37.980;-63.602;2022-10-22T16:50:25;2.53;;;0.80;;
59960;SDS011;55902;-37.980;-63.602;2022-10-22T16:52:52;3.10;;;1.02;;
59960;SDS011;55902;-37.980;-63.602;2022-10-22T16:55:19;2.58;;;0.90;;
59960;SDS011;55902;-37.980;-63.602;2022-10-22T16:57:49;3.50;;;0.90;;
59960;SDS011;55902;-37.980;-63.602;2022-10-22T17:00:18;2.30;;;0.90;;
59960;SDS011;55902;-37.980;-63.602;2022-10-22T17:09:29;2.30;;;0.90;;
59960;SDS011;55902;-37.980;-63.602;2022-10-22T17:11:56;3.85;;;0.90;;
59960;SDS011;55902;-37.980;-63.602;2022-10-22T17:14:24;4.78;;;1.10;;
59960;SDS011;55902;-37.980;-63.602;2022-10-22T17:16:52;3.15;;;0.90;;
59960;SDS011;55902;-37.980;-63.602;2022-10-22T17:19:20;4.53;;;0.85;;